createdAt,value
2022-09-12T00:02:04.226Z,16.38
2022-09-12T00:04:31.587Z,17.02
2022-09-12T00:06:58.791Z,16.90
2022-09-12T00:09:26.033Z,15.60
2022-09-12T00:11:53.253Z,19.77
2022-09-12T00:14:20.543Z,19.13
2022-09-12T00:16:47.872Z,19.58
2022-09-12T00:19:15.312Z,19.17
2022-09-12T00:21:42.677Z,18.15
2022-09-12T00:24:10.174Z,18.98
2022-09-12T00:26:39.065Z,18.95
2022-09-12T00:29:06.448Z,18.67
2022-09-12T00:31:33.776Z,20.00
2022-09-12T00:34:02.266Z,16.98
2022-09-12T00:36:30.335Z,19.95
2022-09-12T00:38:58.209Z,17.60
2022-09-12T00:41:25.444Z,19.63
2022-09-12T00:43:54.050Z,19.67
2022-09-12T00:46:24.289Z,17.80
2022-09-12T00:48:54.645Z,20.65
2022-09-12T00:51:22.201Z,18.73
2022-09-12T00:53:51.939Z,19.60
2022-09-12T00:56:19.663Z,18.63
2022-09-12T00:59:08.348Z,20.92
2022-09-12T01:01:36.158Z,18.60
2022-09-12T01:04:03.940Z,20.23
2022-09-12T01:06:35.381Z,20.73
2022-09-12T01:09:04.397Z,19.30
2022-09-12T01:11:39.506Z,20.75
2022-09-12T01:14:07.424Z,21.13
2022-09-12T01:16:40.724Z,21.00
2022-09-12T01:19:26.331Z,18.33
2022-09-12T01:21:53.518Z,18.03
2022-09-12T01:24:43.650Z,18.50
2022-09-12T01:27:17.181Z,18.75
2022-09-12T01:29:44.437Z,19.08
2022-09-12T01:32:30.477Z,18.45
2022-09-12T01:34:57.806Z,18.70
2022-09-12T01:37:27.711Z,19.10
2022-09-12T01:40:06.194Z,21.48
2022-09-12T01:42:35.603Z,17.65
2022-09-12T01:45:25.357Z,19.48
2022-09-12T01:47:57.215Z,20.47
2022-09-12T01:50:36.482Z,21.58
2022-09-12T01:53:13.731Z,19.27
2022-09-12T01:55:53.000Z,19.77
2022-09-12T01:58:22.710Z,22.05
2022-09-12T02:01:05.533Z,19.17
2022-09-12T02:03:44.653Z,18.10
2022-09-12T02:06:18.451Z,18.48
2022-09-12T02:08:47.597Z,20.48
2022-09-12T02:11:14.905Z,20.70
2022-09-12T02:13:43.518Z,21.00
2022-09-12T02:16:16.161Z,19.98
2022-09-12T02:18:46.069Z,22.83
2022-09-12T02:21:14.005Z,20.42
2022-09-12T02:23:46.032Z,19.65
2022-09-12T02:26:21.017Z,20.67
2022-09-12T02:28:52.769Z,21.20
2022-09-12T02:31:26.317Z,22.50
2022-09-12T02:33:53.553Z,19.98
2022-09-12T02:36:30.068Z,19.80
2022-09-12T02:38:57.601Z,20.87
2022-09-12T02:41:24.975Z,21.30
2022-09-12T02:43:53.491Z,22.02
2022-09-12T02:46:33.920Z,21.33
2022-09-12T02:49:01.191Z,22.02
2022-09-12T02:51:28.523Z,23.03
2022-09-12T02:53:56.055Z,22.10
2022-09-12T02:56:28.585Z,25.08
2022-09-12T02:58:57.305Z,22.52
2022-09-12T03:01:35.051Z,22.98
2022-09-12T03:04:08.542Z,23.77
2022-09-12T03:06:49.789Z,23.23
2022-09-12T03:09:38.549Z,24.10
2022-09-12T03:12:20.149Z,23.58
2022-09-12T03:15:01.704Z,23.23
2022-09-12T03:17:35.442Z,22.10
2022-09-12T03:20:15.799Z,23.00
2022-09-12T03:23:02.024Z,22.55
2022-09-12T03:25:37.109Z,20.45
2022-09-12T03:28:09.712Z,22.17
2022-09-12T03:30:51.574Z,22.57
2022-09-12T03:33:20.204Z,21.33
2022-09-12T03:35:47.695Z,22.10
2022-09-12T03:38:15.377Z,22.20
2022-09-12T03:40:42.568Z,21.90
2022-09-12T03:43:10.264Z,20.53
2022-09-12T03:45:38.247Z,20.58
2022-09-12T03:48:06.289Z,21.40
2022-09-12T03:50:34.005Z,21.67
2022-09-12T03:53:01.510Z,22.55
2022-09-12T03:55:28.841Z,21.63
2022-09-12T03:57:56.496Z,21.27
2022-09-12T04:00:23.960Z,23.73
2022-09-12T04:02:54.891Z,22.65
2022-09-12T04:05:22.231Z,22.60
2022-09-12T04:07:49.532Z,21.13
2022-09-12T04:10:16.880Z,21.92
2022-09-12T04:12:44.384Z,23.08
2022-09-12T04:15:11.911Z,22.48
2022-09-12T04:17:39.263Z,23.88
2022-09-12T04:20:07.069Z,23.43
2022-09-12T04:22:34.530Z,23.23
2022-09-12T04:25:01.930Z,23.10
2022-09-12T04:27:29.252Z,23.08
2022-09-12T04:29:57.382Z,24.38
2022-09-12T04:32:24.674Z,23.77
2022-09-12T04:34:52.827Z,23.20
2022-09-12T04:37:20.534Z,24.15
2022-09-12T04:39:49.442Z,20.20
2022-09-12T04:42:16.882Z,21.83
2022-09-12T04:44:44.085Z,21.90
2022-09-12T04:47:11.400Z,22.20
2022-09-12T04:49:41.281Z,20.45
2022-09-12T04:52:08.507Z,21.13
2022-09-12T04:54:35.913Z,20.73
2022-09-12T04:57:03.085Z,20.60
2022-09-12T04:59:30.306Z,22.33
2022-09-12T05:01:57.666Z,19.52
2022-09-12T05:04:24.908Z,20.98
2022-09-12T05:06:52.162Z,19.90
2022-09-12T05:09:19.368Z,18.60
2022-09-12T05:12:03.776Z,18.70
2022-09-12T05:14:32.556Z,22.00
2022-09-12T05:17:01.411Z,20.60
2022-09-12T05:19:29.113Z,20.60
2022-09-12T05:21:56.345Z,22.07
2022-09-12T05:24:23.896Z,21.65
2022-09-12T05:26:51.122Z,22.45
2022-09-12T05:29:18.415Z,21.95
2022-09-12T05:31:45.841Z,22.08
2022-09-12T05:34:13.579Z,23.10
2022-09-12T05:36:40.759Z,21.98
2022-09-12T05:39:07.947Z,20.27
2022-09-12T05:41:35.987Z,22.10
2022-09-12T05:44:05.170Z,20.92
2022-09-12T05:46:36.228Z,20.83
2022-09-12T05:49:04.255Z,22.48
2022-09-12T05:51:33.485Z,21.48
2022-09-12T05:54:01.291Z,21.70
2022-09-12T05:56:29.345Z,23.15
2022-09-12T05:59:00.160Z,21.23
2022-09-12T06:01:27.875Z,20.63
2022-09-12T06:03:56.474Z,21.15
2022-09-12T06:06:24.531Z,20.73
2022-09-12T06:08:53.165Z,22.83
2022-09-12T06:11:21.944Z,20.47
2022-09-12T06:13:50.338Z,21.38
2022-09-12T06:16:18.929Z,23.13
2022-09-12T06:18:54.119Z,22.98
2022-09-12T06:21:22.014Z,22.85
2022-09-12T06:23:52.301Z,23.07
2022-09-12T06:26:23.230Z,22.67
2022-09-12T06:28:50.767Z,21.02
2022-09-12T06:31:22.553Z,20.90
2022-09-12T06:33:51.771Z,20.25
2022-09-12T06:36:23.539Z,21.23
2022-09-12T06:38:58.203Z,23.52
2022-09-12T06:41:26.167Z,21.60
2022-09-12T06:43:54.417Z,20.58
2022-09-12T06:46:22.244Z,21.90
2022-09-12T06:48:50.484Z,21.97
2022-09-12T06:51:20.067Z,21.42
2022-09-12T06:53:48.113Z,21.27
2022-09-12T06:56:16.678Z,20.58
2022-09-12T06:58:44.621Z,21.95
2022-09-12T07:01:22.151Z,21.27
2022-09-12T07:03:51.023Z,22.70
2022-09-12T07:06:19.442Z,22.52
2022-09-12T07:08:47.203Z,22.85
2022-09-12T07:11:24.490Z,21.50
2022-09-12T07:13:53.268Z,23.10
2022-09-12T07:16:20.923Z,20.90
2022-09-12T07:18:52.399Z,23.15
2022-09-12T07:21:19.950Z,22.13
2022-09-12T07:23:47.493Z,23.25
2022-09-12T07:26:15.443Z,23.47
2022-09-12T07:28:42.735Z,21.67
2022-09-12T07:31:15.539Z,21.35
2022-09-12T07:33:43.082Z,20.95
2022-09-12T07:36:17.359Z,20.67
2022-09-12T07:38:44.805Z,19.37
2022-09-12T07:41:12.924Z,20.65
2022-09-12T07:43:40.328Z,20.67
2022-09-12T07:46:07.849Z,21.73
2022-09-12T07:48:35.034Z,22.40
2022-09-12T07:51:04.044Z,19.73
2022-09-12T07:53:35.948Z,20.48
2022-09-12T07:56:04.432Z,22.67
2022-09-12T07:58:32.209Z,20.20
2022-09-12T08:01:10.356Z,20.23
2022-09-12T08:03:37.935Z,18.90
2022-09-12T08:06:05.244Z,18.48
2022-09-12T08:08:32.602Z,21.30
2022-09-12T08:11:00.690Z,19.75
2022-09-12T08:13:28.867Z,20.23
2022-09-12T08:16:03.556Z,18.97
2022-09-12T08:18:32.653Z,17.95
2022-09-12T08:21:05.405Z,19.73
2022-09-12T08:23:32.646Z,18.70
2022-09-12T08:26:05.295Z,19.00
2022-09-12T08:28:34.072Z,17.67
2022-09-12T08:31:05.557Z,17.98
2022-09-12T08:33:33.793Z,17.88
2022-09-12T08:36:08.313Z,17.65
2022-09-12T08:38:36.348Z,17.38
2022-09-12T08:41:06.657Z,17.37
2022-09-12T08:43:52.026Z,17.00
2022-09-12T08:46:40.867Z,17.30
2022-09-12T08:49:10.695Z,17.83
2022-09-12T08:51:38.326Z,17.60
2022-09-12T08:54:06.210Z,17.83
2022-09-12T08:56:37.335Z,17.25
2022-09-12T08:59:04.532Z,18.75
2022-09-12T09:01:33.170Z,17.25
2022-09-12T09:04:06.500Z,18.45
2022-09-12T09:06:45.962Z,15.23
2022-09-12T09:09:13.149Z,16.48
2022-09-12T09:11:53.161Z,17.17
2022-09-12T09:14:48.904Z,16.90
2022-09-12T09:17:20.233Z,16.77
2022-09-12T09:19:51.099Z,13.50
2022-09-12T09:22:30.825Z,15.82
2022-09-12T09:25:00.596Z,15.18
2022-09-12T09:27:57.577Z,15.43
2022-09-12T09:30:24.842Z,13.32
2022-09-12T09:32:53.581Z,14.80
2022-09-12T09:35:39.512Z,13.65
2022-09-12T09:38:15.723Z,13.40
2022-09-12T09:40:46.323Z,12.18
2022-09-12T09:43:19.735Z,11.45
2022-09-12T09:45:47.962Z,10.27
2022-09-12T09:48:20.685Z,10.05
2022-09-12T09:50:49.093Z,10.45
2022-09-12T09:53:25.124Z,10.75
2022-09-12T09:55:53.637Z,11.07
2022-09-12T09:58:31.071Z,9.87
2022-09-12T10:01:13.510Z,10.63
2022-09-12T10:03:41.073Z,10.40
2022-09-12T10:06:23.397Z,10.05
2022-09-12T10:08:51.070Z,10.55
2022-09-12T10:11:20.556Z,9.97
2022-09-12T10:13:56.936Z,9.95
2022-09-12T10:16:34.784Z,11.10
2022-09-12T10:19:03.430Z,9.90
2022-09-12T10:21:33.973Z,10.05
2022-09-12T10:24:21.096Z,8.77
2022-09-12T10:26:56.558Z,8.70
2022-09-12T10:29:30.038Z,9.52
2022-09-12T10:32:02.656Z,7.53
2022-09-12T10:34:40.614Z,9.07
2022-09-12T10:37:10.266Z,8.07
2022-09-12T10:39:39.593Z,7.47
2022-09-12T10:42:07.412Z,8.25
2022-09-12T10:44:37.560Z,7.60
2022-09-12T10:47:25.424Z,6.43
2022-09-12T10:49:53.530Z,5.67
2022-09-12T10:52:48.002Z,5.88
2022-09-12T10:55:27.635Z,5.20
2022-09-12T10:58:17.933Z,5.63
2022-09-12T11:00:48.779Z,5.32
2022-09-12T11:03:27.095Z,5.60
2022-09-12T11:06:01.809Z,5.68
2022-09-12T11:08:43.707Z,6.03
2022-09-12T11:11:28.173Z,5.90
2022-09-12T11:14:01.058Z,5.50
2022-09-12T11:16:46.163Z,5.30
2022-09-12T11:19:22.789Z,5.68
2022-09-12T11:22:05.751Z,5.57
2022-09-12T11:24:57.268Z,5.80
2022-09-12T11:27:50.241Z,5.53
2022-09-12T11:30:22.569Z,5.20
2022-09-12T11:33:00.311Z,5.50
2022-09-12T11:35:37.401Z,4.20
2022-09-12T11:38:11.694Z,4.43
2022-09-12T11:40:48.480Z,5.03
2022-09-12T11:43:26.369Z,4.10
2022-09-12T11:45:58.442Z,3.97
2022-09-12T11:48:26.904Z,5.07
2022-09-12T11:50:59.545Z,5.15
2022-09-12T11:53:47.217Z,4.43
2022-09-12T11:56:19.210Z,4.50
2022-09-12T11:58:52.340Z,5.00
2022-09-12T12:01:26.103Z,4.50
2022-09-12T12:03:55.733Z,4.60
2022-09-12T12:06:35.592Z,4.50
2022-09-12T12:09:06.419Z,4.50
2022-09-12T12:11:37.674Z,4.57
2022-09-12T12:14:13.998Z,3.90
2022-09-12T12:16:42.027Z,4.13
2022-09-12T12:19:18.412Z,3.40
2022-09-12T12:21:47.558Z,3.83
2022-09-12T12:24:34.634Z,3.60
2022-09-12T12:27:06.453Z,3.55
2022-09-12T12:29:44.419Z,4.03
2022-09-12T12:32:20.102Z,3.92
2022-09-12T12:34:50.982Z,3.93
2022-09-12T12:37:21.677Z,4.13
2022-09-12T12:40:01.633Z,3.88
2022-09-12T12:42:38.439Z,3.28
2022-09-12T12:45:33.898Z,3.65
2022-09-12T12:48:12.081Z,3.33
2022-09-12T12:50:41.972Z,3.30
2022-09-12T12:53:30.827Z,3.70
2022-09-12T12:56:07.914Z,4.18
2022-09-12T12:58:45.889Z,4.35
2022-09-12T13:01:32.238Z,3.40
2022-09-12T13:04:03.127Z,2.97
2022-09-12T13:06:49.265Z,2.90
2022-09-12T13:09:31.977Z,3.28
2022-09-12T13:12:11.450Z,2.78
2022-09-12T13:15:05.790Z,2.73
2022-09-12T13:17:50.629Z,3.10
2022-09-12T13:20:29.397Z,3.22
2022-09-12T13:22:57.419Z,2.20
2022-09-12T13:25:24.779Z,3.00
2022-09-12T13:28:10.797Z,2.03
2022-09-12T13:30:39.737Z,2.72
2022-09-12T13:33:13.859Z,2.80
2022-09-12T13:35:54.458Z,2.25
2022-09-12T13:38:27.570Z,2.20
2022-09-12T13:40:56.476Z,3.10
2022-09-12T13:43:27.778Z,2.50
2022-09-12T13:45:55.044Z,2.97
2022-09-12T13:48:24.270Z,2.50
2022-09-12T13:50:52.872Z,2.90
2022-09-12T13:53:24.708Z,2.20
2022-09-12T13:56:01.398Z,2.67
2022-09-12T13:58:33.607Z,2.20
2022-09-12T14:01:06.893Z,2.00
2022-09-12T14:03:58.557Z,2.10
2022-09-12T14:06:27.629Z,2.20
2022-09-12T14:08:58.962Z,2.58
2022-09-12T14:11:30.498Z,2.50
2022-09-12T14:13:58.215Z,2.40
2022-09-12T14:16:29.165Z,2.80
2022-09-12T14:18:57.099Z,2.20
2022-09-12T14:21:34.144Z,2.40
2022-09-12T14:24:01.874Z,2.33
2022-09-12T14:26:32.501Z,2.65
2022-09-12T14:29:00.198Z,2.30
2022-09-12T14:31:32.125Z,2.47
2022-09-12T14:34:10.428Z,2.15
2022-09-12T14:36:37.653Z,2.60
2022-09-12T14:39:16.191Z,2.28
2022-09-12T14:41:43.545Z,2.25
2022-09-12T14:44:16.377Z,2.30
2022-09-12T14:46:45.076Z,2.10
2022-09-12T14:49:24.169Z,2.50
2022-09-12T14:51:51.672Z,2.00
2022-09-12T14:54:28.297Z,2.30
2022-09-12T14:56:56.629Z,1.90
2022-09-12T14:59:27.193Z,2.40
2022-09-12T15:02:13.420Z,2.00
2022-09-12T15:04:42.275Z,2.17
2022-09-12T15:07:28.629Z,2.40
2022-09-12T15:09:56.154Z,1.70
2022-09-12T15:12:23.583Z,1.90
2022-09-12T15:14:50.896Z,1.95
2022-09-12T15:17:18.377Z,2.10
2022-09-12T15:19:45.579Z,1.77
2022-09-12T15:22:13.865Z,1.90
2022-09-12T15:24:41.111Z,1.85
2022-09-12T15:27:14.586Z,2.38
2022-09-12T15:29:41.896Z,2.17
2022-09-12T15:32:14.776Z,2.35
2022-09-12T15:34:42.117Z,2.30
2022-09-12T15:37:14.151Z,2.53
2022-09-12T15:39:41.626Z,2.42
2022-09-12T15:42:10.023Z,2.30
2022-09-12T15:44:37.284Z,2.60
2022-09-12T15:47:05.201Z,2.30
2022-09-12T15:49:32.652Z,2.20
2022-09-12T15:52:00.512Z,2.30
2022-09-12T15:54:35.487Z,2.85
2022-09-12T15:57:03.302Z,2.70
2022-09-12T15:59:35.101Z,1.93
2022-09-12T16:02:06.212Z,2.00
2022-09-12T16:04:35.589Z,2.15
2022-09-12T16:07:09.747Z,2.33
2022-09-12T16:09:38.942Z,2.30
2022-09-12T16:12:07.255Z,2.20
2022-09-12T16:14:42.695Z,2.42
2022-09-12T16:17:15.087Z,2.33
2022-09-12T16:19:43.037Z,2.25
2022-09-12T16:22:11.491Z,2.40
2022-09-12T16:24:44.390Z,2.70
2022-09-12T16:27:14.209Z,2.17
2022-09-12T16:29:47.504Z,2.05
2022-09-12T16:32:17.391Z,2.10
2022-09-12T16:35:02.479Z,2.38
2022-09-12T16:37:30.295Z,2.00
2022-09-12T16:40:00.487Z,1.98
2022-09-12T16:42:28.834Z,1.90
2022-09-12T16:44:59.314Z,1.85
2022-09-12T16:47:35.340Z,2.00
2022-09-12T16:50:02.800Z,2.20
2022-09-12T16:52:33.710Z,1.98
2022-09-12T16:55:01.714Z,2.03
2022-09-12T16:57:29.388Z,1.67
2022-09-12T17:00:04.792Z,1.80
2022-09-12T17:02:32.472Z,2.10
2022-09-12T17:05:01.780Z,2.10
2022-09-12T17:07:41.776Z,2.05
2022-09-12T17:10:18.546Z,1.95
2022-09-12T17:12:45.847Z,1.73
2022-09-12T17:15:13.576Z,2.30
2022-09-12T17:17:40.824Z,2.00
2022-09-12T17:20:08.193Z,2.03
2022-09-12T17:22:35.489Z,1.88
2022-09-12T17:25:02.701Z,2.15
2022-09-12T17:27:29.911Z,2.00
2022-09-12T17:29:57.138Z,2.13
2022-09-12T17:32:24.442Z,2.20
2022-09-12T17:34:52.282Z,2.10
2022-09-12T17:37:19.783Z,2.13
2022-09-12T17:39:47.081Z,1.90
2022-09-12T17:42:14.463Z,2.50
2022-09-12T17:44:41.704Z,2.33
2022-09-12T17:47:09.012Z,1.77
2022-09-12T17:49:36.668Z,2.03
2022-09-12T17:52:03.976Z,2.10
2022-09-12T17:54:31.319Z,2.67
2022-09-12T17:56:59.326Z,2.42
2022-09-12T17:59:26.652Z,2.20
2022-09-12T18:02:12.432Z,2.05
2022-09-12T18:04:41.121Z,1.80
2022-09-12T18:07:09.015Z,2.17
2022-09-12T18:09:36.441Z,2.38
2022-09-12T18:12:03.699Z,2.15
2022-09-12T18:14:31.027Z,2.47
2022-09-12T18:17:00.088Z,1.93
2022-09-12T18:19:27.892Z,1.90
2022-09-12T18:21:55.944Z,2.40
2022-09-12T18:24:23.532Z,2.10
2022-09-12T18:26:50.808Z,2.30
2022-09-12T18:29:19.953Z,2.30
2022-09-12T18:31:47.373Z,2.97
2022-09-12T18:34:14.803Z,2.47
2022-09-12T18:36:43.012Z,2.50
2022-09-12T18:39:10.255Z,2.53
2022-09-12T18:41:37.849Z,2.30
2022-09-12T18:44:05.729Z,2.45
2022-09-12T18:46:34.913Z,2.38
2022-09-12T18:49:02.561Z,2.70
2022-09-12T18:51:31.720Z,2.67
2022-09-12T18:54:03.603Z,2.20
2022-09-12T18:56:33.023Z,2.47
2022-09-12T18:59:01.285Z,2.60
2022-09-12T19:01:32.894Z,2.88
2022-09-12T19:04:05.098Z,2.88
2022-09-12T19:06:34.596Z,3.00
2022-09-12T19:09:07.376Z,3.22
2022-09-12T19:11:36.638Z,3.83
2022-09-12T19:14:03.943Z,3.58
2022-09-12T19:16:31.460Z,3.30
2022-09-12T19:18:59.345Z,3.53
2022-09-12T19:21:28.225Z,3.08
2022-09-12T19:24:02.025Z,3.08
2022-09-12T19:26:30.078Z,3.10
2022-09-12T19:28:57.806Z,3.30
2022-09-12T19:31:25.530Z,3.00
2022-09-12T19:33:53.311Z,3.20
2022-09-12T19:36:43.838Z,3.13
2022-09-12T19:39:10.281Z,2.97
2022-09-12T19:41:37.709Z,3.20
2022-09-12T19:44:05.577Z,3.00
2022-09-12T19:46:32.863Z,2.78
2022-09-12T19:49:00.222Z,3.35
2022-09-12T19:51:27.505Z,2.85
2022-09-12T19:53:54.755Z,3.13
2022-09-12T19:56:22.118Z,2.90
2022-09-12T19:58:55.811Z,3.25
2022-09-12T20:01:25.623Z,3.28
2022-09-12T20:03:53.794Z,3.20
2022-09-12T20:06:21.534Z,3.05
2022-09-12T20:08:49.383Z,2.97
2022-09-12T20:11:17.910Z,2.88
2022-09-12T20:13:46.184Z,3.28
2022-09-12T20:16:21.826Z,3.55
2022-09-12T20:18:53.264Z,3.70
2022-09-12T20:21:25.989Z,3.37
2022-09-12T20:23:53.485Z,2.90
2022-09-12T20:26:21.035Z,2.75
2022-09-12T20:28:48.979Z,3.22
2022-09-12T20:31:17.130Z,2.92
2022-09-12T20:33:48.625Z,3.30
2022-09-12T20:36:20.351Z,3.30
2022-09-12T20:38:49.491Z,3.17
2022-09-12T20:41:17.949Z,2.83
2022-09-12T20:43:51.965Z,2.85
2022-09-12T20:46:25.302Z,3.30
2022-09-12T20:48:53.555Z,3.15
2022-09-12T20:51:43.595Z,3.72
2022-09-12T20:54:14.613Z,3.45
2022-09-12T20:56:42.766Z,3.65
2022-09-12T20:59:14.281Z,3.73
2022-09-12T21:01:45.405Z,3.53
2022-09-12T21:04:15.126Z,3.33
2022-09-12T21:06:46.185Z,3.75
2022-09-12T21:09:22.696Z,3.55
2022-09-12T21:11:53.389Z,3.70
2022-09-12T21:14:21.222Z,3.72
2022-09-12T21:16:48.997Z,4.35
2022-09-12T21:19:21.239Z,4.25
2022-09-12T21:21:54.164Z,3.90
2022-09-12T21:24:24.989Z,3.70
2022-09-12T21:26:55.041Z,3.30
2022-09-12T21:29:26.559Z,4.13
2022-09-12T21:31:56.725Z,4.50
2022-09-12T21:34:27.208Z,4.05
2022-09-12T21:36:55.888Z,3.23
2022-09-12T21:39:23.453Z,3.80
2022-09-12T21:41:50.937Z,4.57
2022-09-12T21:44:27.203Z,4.60
2022-09-12T21:46:56.315Z,3.75
2022-09-12T21:49:25.967Z,4.13
2022-09-12T21:51:57.620Z,4.20
2022-09-12T21:54:27.352Z,4.38
2022-09-12T21:56:58.678Z,3.85
2022-09-12T21:59:30.177Z,4.18
2022-09-12T22:01:58.034Z,4.30
2022-09-12T22:04:29.487Z,3.97
2022-09-12T22:06:58.434Z,4.22
2022-09-12T22:09:28.121Z,4.20
2022-09-12T22:11:56.942Z,4.25
2022-09-12T22:14:34.638Z,4.67
2022-09-12T22:17:02.151Z,4.07
2022-09-12T22:19:31.649Z,4.10
2022-09-12T22:22:17.956Z,4.75
2022-09-12T22:24:48.348Z,4.03
2022-09-12T22:27:16.190Z,4.07
2022-09-12T22:29:46.409Z,4.15
2022-09-12T22:32:15.715Z,4.28
2022-09-12T22:34:46.126Z,4.00
2022-09-12T22:37:22.321Z,4.72
2022-09-12T22:39:53.176Z,3.97
2022-09-12T22:42:23.207Z,4.95
2022-09-12T22:45:00.785Z,4.47
2022-09-12T22:47:37.342Z,4.75
2022-09-12T22:50:05.125Z,4.65
2022-09-12T22:52:32.802Z,4.27
2022-09-12T22:55:00.806Z,4.60
2022-09-12T22:57:29.733Z,4.82
2022-09-12T22:59:57.162Z,5.35
2022-09-12T23:02:24.670Z,5.00
2022-09-12T23:04:57.928Z,4.90
2022-09-12T23:07:26.529Z,5.22
2022-09-12T23:09:58.792Z,5.72
2022-09-12T23:12:34.329Z,6.00
2022-09-12T23:15:01.924Z,6.28
2022-09-12T23:17:35.092Z,6.03
2022-09-12T23:20:05.971Z,5.60
2022-09-12T23:25:18.348Z,5.50
2022-09-12T23:27:51.123Z,6.22
2022-09-12T23:30:25.328Z,6.40
2022-09-12T23:32:56.534Z,6.57
2022-09-12T23:35:29.560Z,6.60
2022-09-12T23:38:01.930Z,5.82
2022-09-12T23:40:32.505Z,6.22
2022-09-12T23:43:02.641Z,5.63
2022-09-12T23:45:30.773Z,6.15
2022-09-12T23:48:01.975Z,6.70
2022-09-12T23:50:32.256Z,5.82
2022-09-12T23:53:00.181Z,6.38
2022-09-12T23:55:29.246Z,6.07
2022-09-12T23:57:59.975Z,5.05
